createdAt,value
2023-08-11T00:08:48.815Z,101237.83
2023-08-11T00:38:51.936Z,101224.22
2023-08-11T01:08:55.182Z,101215.74
2023-08-11T01:38:58.708Z,101220.09
2023-08-11T02:09:01.941Z,101220.22
2023-08-11T02:39:05.526Z,101222.93
2023-08-11T03:09:09.971Z,101230.45
2023-08-11T03:39:12.868Z,101238.82
2023-08-11T04:09:16.386Z,101239.87
2023-08-11T04:39:19.352Z,101249.95
2023-08-11T05:09:22.843Z,101251.06
2023-08-11T05:39:25.760Z,101254.10
2023-08-11T06:09:30.049Z,101253.44
2023-08-11T06:39:33.514Z,101274.56
2023-08-11T07:09:38.294Z,101299.70
2023-08-11T07:39:41.720Z,101322.88
2023-08-11T08:09:45.040Z,101309.91
2023-08-11T08:39:48.367Z,101316.53
2023-08-11T09:09:51.543Z,101318.13
2023-08-11T09:39:54.997Z,101315.02
2023-08-11T10:09:58.994Z,101304.16
2023-08-11T10:40:01.970Z,101301.14
2023-08-11T11:10:05.425Z,101300.72
2023-08-11T11:40:08.506Z,101288.82
2023-08-11T12:10:11.953Z,101283.39
2023-08-11T12:40:15.310Z,101282.10
2023-08-11T13:10:19.273Z,101276.14
2023-08-11T13:40:22.874Z,101269.56
2023-08-11T14:10:26.410Z,101247.84
2023-08-11T14:40:29.445Z,101258.06
2023-08-11T15:10:33.152Z,101254.99
2023-08-11T15:40:36.232Z,101236.33
2023-08-11T16:10:39.411Z,101229.77
2023-08-11T16:40:42.785Z,101212.81
2023-08-11T17:10:45.896Z,101212.23
2023-08-11T17:40:49.471Z,101221.13
2023-08-11T18:10:52.762Z,101246.22
2023-08-11T18:40:56.617Z,101276.70
2023-08-11T19:10:59.997Z,101287.67
2023-08-11T19:41:03.167Z,101290.06
2023-08-11T20:11:06.617Z,101288.97
2023-08-11T20:41:09.707Z,101278.34
2023-08-11T21:11:12.818Z,101268.25
2023-08-11T21:41:15.716Z,101259.69
2023-08-11T22:11:35.431Z,101276.55
2023-08-11T22:41:40.284Z,101282.86
2023-08-11T23:11:43.812Z,101271.59
2023-08-11T23:41:47.197Z,101295.94
